• Join FlightAware (Why Join?)
  • Login
  • US Flag 
03:15AM EDT


 

Airport Tracker/Info


-or-


 

Live Flight TrackerFlight Track Log ✈ N609C ✈ 02-Sep-2013 ✈ KMBS - KRYV

Flight Track Log - Related Links

Times and Time Zones

All times are in EDT time to prevent confusion due to time zone crossing. See the N609C flight status page for this flight to view local times or setup timezone preferences in your user account.

Time Position Orientation Groundspeed Altitude Reporting Facility
EDT Latitude Longitude Course Direction KTS MPH feet Rate Location/Type
04:53PM 43.5228 -84.2928 265° West 135 155 5,700  Level Chicago Center
04:54PM 43.5023 -84.4082 263° West  Level FlightAware Approximate
04:54PM 43.5183 -84.3364 262° West 117 135 6,300  Level Chicago Center
04:55PM 43.5000 -84.4651 270° West  Level FlightAware Approximate
04:55PM 43.5153 -84.3839 265° West 120 138 7,000  Level Chicago Center
04:56PM 43.4967 -84.5221 265° West  Level FlightAware Approximate
04:56PM 43.5114 -84.4286 263° West 120 138 7,600  Level Chicago Center
04:57PM 43.4932 -84.5790 265° West  Level FlightAware Approximate
04:57PM 43.5106 -84.4739 269° West 119 137 8,000  Level Chicago Center
04:58PM 43.4897 -84.6359 265° West  Level FlightAware Approximate
04:58PM 43.5044 -84.5228 260° West 127 146 8,100  Level Chicago Center
04:59PM 43.5019 -84.5931 267° West 148 170 8,100  Level Chicago Center
05:00PM 43.4981 -84.6508 265° West 151 174 8,100  Level Chicago Center
05:01PM 43.4950 -84.7094 266° West 154 177 8,100  Level Chicago Center
05:02PM 43.4919 -84.7694 266° West 156 180 8,100  Level Chicago Center
05:03PM 43.4908 -84.8275 269° West 155 178 8,100  Level Chicago Center
05:04PM 43.4881 -84.8958 267° West 150 173 8,100  Level Chicago Center
05:05PM 43.4850 -84.9553 266° West 154 177 8,100  Level Chicago Center
05:06PM 43.4800 -85.0147 263° West 156 180 8,100  Level Chicago Center
05:07PM 43.4758 -85.0719 264° West 154 177 8,100  Level Chicago Center
05:08PM 43.4714 -85.1303 264° West 154 177 8,100  Level Chicago Center
05:09PM 43.4681 -85.1894 266° West 155 178 8,100  Level Chicago Center
05:10PM 43.4642 -85.2600 266° West 155 178 8,100  Level Chicago Center
05:11PM 43.4603 -85.3181 265° West 154 177 8,100  Level Chicago Center
05:12PM 43.4558 -85.3761 264° West 153 176 8,100  Level Chicago Center
05:13PM 43.4517 -85.4344 264° West 155 178 8,100  Level Chicago Center
05:14PM 43.4489 -85.4931 266° West 155 178 8,100  Level Chicago Center
05:15PM 43.4444 -85.5517 264° West 155 178 8,100  Level Chicago Center
05:16PM 43.4392 -85.6239 264° West 158 182 8,100  Level Chicago Center
05:17PM 43.4342 -85.6836 263° West 158 182 8,100  Level Chicago Center
05:18PM 43.4292 -85.7428 263° West 157 181 8,100  Level Chicago Center
05:19PM 43.4247 -85.8014 264° West 156 180 8,100  Level Chicago Center
05:20PM 43.4214 -85.8611 266° West 157 181 8,100  Level Chicago Center
05:21PM 43.4150 -85.9319 263° West 157 181 8,100  Level Chicago Center
05:23PM 43.4114 -85.9903 265° West 156 180 8,100  Level Chicago Center
05:24PM 43.4069 -86.0478 264° West 152 175 8,100  Level Chicago Center
05:25PM 43.4019 -86.1069 263° West 155 178 8,100  Level Chicago Center
05:26PM 43.3975 -86.1647 264° West 154 177 8,100  Level Chicago Center
05:27PM 43.3928 -86.2361 265° West 157 181 8,100  Level Chicago Center
05:28PM 43.3878 -86.2958 263° West 159 183 8,100  Level Chicago Center
05:29PM 43.3833 -86.3558 264° West 159 183 8,100  Level Chicago Center
05:30PM 43.3794 -86.4142 265° West 157 181 8,100  Level Chicago Center
05:31PM 43.3750 -86.4739 264° West 159 183 8,100  Level Chicago Center
05:32PM 43.3697 -86.5322 263° West 155 178 8,100  Level Chicago Center
05:33PM 43.3650 -86.6053 265° West 160 184 8,100  Level Chicago Center
05:34PM 43.3600 -86.6642 263° West 156 180 8,100  Level Chicago Center
05:35PM 43.3556 -86.7242 264° West 159 183 8,100  Level Chicago Center
05:36PM 43.3492 -86.7844 262° West 160 184 8,100  Level Chicago Center
05:37PM 43.3431 -86.8444 262° West 160 184 8,100  Level Chicago Center
05:38PM 43.3375 -86.9153 264° West 156 180 8,100  Level Chicago Center
05:39PM 43.3333 -86.9753 265° West 157 181 8,100  Level Chicago Center
05:40PM 43.3300 -87.0333 266° West 155 178 8,100  Level Chicago Center
05:41PM 43.3261 -87.0925 265° West 155 178 8,100  Level Chicago Center
05:42PM 43.3206 -87.1514 263° West 156 180 8,100  Level Chicago Center
05:43PM 43.3142 -87.2103 262° West 156 180 8,100  Level Chicago Center
05:44PM 43.3081 -87.2811 263° West 156 180 8,100  Level Chicago Center
05:45PM 43.3014 -87.3397 261° West 156 180 8,100  Level Chicago Center
05:46PM 43.2950 -87.4058 262° West 159 183 8,100  Level Chicago Center
05:47PM 43.2903 -87.4656 264° West 158 182 8,100  Level Chicago Center
05:48PM 43.2856 -87.5253 264° West 157 181 8,100  Level Chicago Center
05:49PM 43.2814 -87.5853 265° West 157 181 8,100  Level Chicago Center
05:50PM 43.2764 -87.6453 263° West 157 181 8,100 -300 Level Chicago Center
05:51PM 43.2700 -87.7197 263° West 167 192 7,500 -540 Descending Chicago Center
05:53PM 43.2639 -87.7858 263° West 172 198 7,100 -480 Descending Chicago Center
05:54PM 43.2581 -87.8533 263° West 177 204 6,600 -480 Descending Chicago Center
05:55PM 43.2511 -87.9194 262° West 176 203 6,200 -480 Descending Chicago Center
05:56PM 43.2453 -87.9872 263° West 177 204 5,700 -600 Descending Chicago Center
05:57PM 43.2389 -88.0544 263° West 177 204 5,000 -780 Descending Chicago Center
05:58PM 43.2244 -88.1347 256° West 182 209 4,200 -480 Descending Chicago Center
05:59PM 43.2206 -88.1978 265° West 173 199 4,000 -120 Descending Chicago Center
06:00PM 43.2153 -88.2486 262° West 166 191 4,000  Level Chicago Center